Time,TemperatureF,DewpointF,PressureIn,WindDirection,WindDirectionDegrees,WindSpeedMPH,WindSpeedGustMPH,Humidity,HourlyPrecipIn,Conditions,Clouds,dailyrainin,SoftwareType,DateUTC
2013-08-09 00:04:00,73.6,70.8,29.77,West,270,1.7,-999.0,91,-99.99,,,0.00,Acu-Link.com,2013-08-09 04:04:00,
2013-08-09 00:19:00,73.0,70.5,29.77,SE,135,3.7,-999.0,92,-99.99,,,0.00,Acu-Link.com,2013-08-09 04:19:00,
2013-08-09 00:34:00,73.0,70.5,29.76,SSW,202,3.2,-999.0,92,-99.99,,,0.00,Acu-Link.com,2013-08-09 04:34:00,
2013-08-09 00:49:00,72.9,70.8,29.76,SW,225,0.0,-999.0,93,-99.99,,,0.00,Acu-Link.com,2013-08-09 04:49:00,
2013-08-09 01:04:00,72.7,70.6,29.75,SSW,202,1.7,-999.0,93,-99.99,,,0.00,Acu-Link.com,2013-08-09 05:04:00,
2013-08-09 01:19:00,72.7,70.9,29.75,WSW,247,0.0,-999.0,94,-99.99,,,0.00,Acu-Link.com,2013-08-09 05:19:00,
2013-08-09 01:34:00,72.5,70.7,29.76,SSW,202,0.0,-999.0,94,-99.99,,,0.00,Acu-Link.com,2013-08-09 05:34:00,
2013-08-09 01:49:00,72.5,70.7,29.76,WSW,247,0.0,-999.0,94,-99.99,,,0.00,Acu-Link.com,2013-08-09 05:49:00,
2013-08-09 02:04:00,72.9,71.1,29.77,WSW,247,0.0,-999.0,94,-99.99,,,0.00,Acu-Link.com,2013-08-09 06:04:00,
2013-08-09 02:20:00,73.0,71.2,29.76,WSW,247,1.7,-999.0,94,-99.99,,,0.00,Acu-Link.com,2013-08-09 06:20:00,
2013-08-09 02:35:00,73.0,71.2,29.76,South,180,1.7,-999.0,94,-99.99,,,0.00,Acu-Link.com,2013-08-09 06:35:00,
2013-08-09 02:50:00,73.0,71.2,29.76,West,270,1.7,-999.0,94,-99.99,,,0.00,Acu-Link.com,2013-08-09 06:50:00,
2013-08-09 03:05:00,73.2,71.4,29.76,North,0,1.1,-999.0,94,-99.99,,,0.00,Acu-Link.com,2013-08-09 07:05:00,
2013-08-09 03:20:00,73.2,71.4,29.77,SW,225,1.1,-999.0,94,-99.99,,,0.00,Acu-Link.com,2013-08-09 07:20:00,
2013-08-09 03:35:00,73.0,71.2,29.76,West,270,0.0,-999.0,94,-99.99,,,0.00,Acu-Link.com,2013-08-09 07:35:00,
2013-08-09 03:50:00,73.0,71.2,29.77,SSW,202,0.0,-999.0,94,-99.99,,,0.00,Acu-Link.com,2013-08-09 07:50:00,
2013-08-09 04:06:00,73.0,71.2,29.76,South,180,0.0,-999.0,94,-99.99,,,0.00,Acu-Link.com,2013-08-09 08:06:00,
2013-08-09 04:22:00,73.0,71.2,29.76,West,270,0.0,-999.0,94,-99.99,,,0.00,Acu-Link.com,2013-08-09 08:22:00,
2013-08-09 04:37:00,73.0,71.2,29.76,WSW,247,0.0,-999.0,94,-99.99,,,0.00,Acu-Link.com,2013-08-09 08:37:00,
2013-08-09 04:52:00,73.2,71.4,29.76,SSE,157,0.0,-999.0,94,-99.99,,,0.00,Acu-Link.com,2013-08-09 08:52:00,
2013-08-09 05:07:00,73.2,71.4,29.76,West,270,0.0,-999.0,94,-99.99,,,0.00,Acu-Link.com,2013-08-09 09:07:00,
2013-08-09 05:22:00,73.2,71.4,29.76,West,270,0.0,-999.0,94,-99.99,,,0.00,Acu-Link.com,2013-08-09 09:22:00,
2013-08-09 05:37:00,73.2,71.4,29.75,WNW,292,0.0,-999.0,94,-99.99,,,0.00,Acu-Link.com,2013-08-09 09:37:00,
2013-08-09 05:52:00,73.2,71.4,29.75,SSW,202,0.0,-999.0,94,-99.99,,,0.00,Acu-Link.com,2013-08-09 09:52:00,
2013-08-09 06:07:00,73.4,71.6,29.76,South,180,1.1,-999.0,94,-99.99,,,0.00,Acu-Link.com,2013-08-09 10:07:00,
2013-08-09 06:22:00,73.2,71.7,29.76,WSW,247,1.1,-999.0,95,-99.99,,,0.00,Acu-Link.com,2013-08-09 10:22:00,
2013-08-09 06:38:00,72.9,71.7,29.76,North,0,0.0,-999.0,96,-99.99,,,0.00,Acu-Link.com,2013-08-09 10:38:00,
2013-08-09 06:53:00,72.9,72.0,29.76,South,180,2.2,-999.0,97,-99.99,,,0.01,Acu-Link.com,2013-08-09 10:53:00,
2013-08-09 07:08:00,72.7,71.8,29.76,SW,225,2.2,-999.0,97,-99.99,,,0.02,Acu-Link.com,2013-08-09 11:08:00,
2013-08-09 07:23:00,72.7,72.1,29.75,South,180,0.0,-999.0,98,-99.99,,,0.02,Acu-Link.com,2013-08-09 11:23:00,
2013-08-09 07:38:00,72.7,72.1,29.76,North,0,0.0,-999.0,98,-99.99,,,0.02,Acu-Link.com,2013-08-09 11:38:00,
2013-08-09 07:53:00,72.7,72.1,29.76,NNW,337,1.1,-999.0,98,-99.99,,,0.02,Acu-Link.com,2013-08-09 11:53:00,
2013-08-09 08:08:00,72.9,72.3,29.76,South,180,1.1,-999.0,98,-99.99,,,0.02,Acu-Link.com,2013-08-09 12:08:00,
2013-08-09 08:23:00,73.0,72.4,29.76,SW,225,2.7,-999.0,98,-99.99,,,0.02,Acu-Link.com,2013-08-09 12:23:00,
2013-08-09 08:38:00,73.2,72.6,29.75,WSW,247,1.1,-999.0,98,-99.99,,,0.02,Acu-Link.com,2013-08-09 12:38:00,
2013-08-09 08:54:00,73.4,72.8,29.76,SW,225,0.0,-999.0,98,-99.99,,,0.02,Acu-Link.com,2013-08-09 12:54:00,
2013-08-09 09:09:00,73.9,73.3,29.77,West,270,0.0,-999.0,98,-99.99,,,0.02,Acu-Link.com,2013-08-09 13:09:00,
2013-08-09 09:24:00,74.3,73.4,29.77,SW,225,0.0,-999.0,97,-99.99,,,0.02,Acu-Link.com,2013-08-09 13:24:00,
2013-08-09 09:39:00,74.3,73.1,29.76,East,90,0.0,-999.0,96,-99.99,,,0.02,Acu-Link.com,2013-08-09 13:39:00,
2013-08-09 09:54:00,74.1,72.9,29.76,WSW,247,0.0,-999.0,96,-99.99,,,0.03,Acu-Link.com,2013-08-09 13:54:00,
2013-08-09 10:09:00,74.3,73.1,29.76,ESE,112,2.2,-999.0,96,-99.99,,,0.03,Acu-Link.com,2013-08-09 14:09:00,
2013-08-09 10:24:00,74.8,73.6,29.77,West,270,0.0,-999.0,96,-99.99,,,0.03,Acu-Link.com,2013-08-09 14:24:00,
2013-08-09 10:39:00,75.6,74.4,29.76,West,270,0.0,-999.0,96,-99.99,,,0.03,Acu-Link.com,2013-08-09 14:39:00,
2013-08-09 10:54:00,75.9,74.0,29.77,ENE,67,0.0,-999.0,94,-99.99,,,0.04,Acu-Link.com,2013-08-09 14:54:00,
2013-08-09 11:10:00,79.2,77.0,29.76,SW,225,1.1,-999.0,93,-99.99,,,0.05,Acu-Link.com,2013-08-09 15:10:00,
2013-08-09 11:25:00,77.7,74.5,29.76,North,0,3.2,-999.0,90,-99.99,,,0.05,Acu-Link.com,2013-08-09 15:25:00,
2013-08-09 11:40:00,77.0,74.5,29.76,ESE,112,0.0,-999.0,92,-99.99,,,0.05,Acu-Link.com,2013-08-09 15:40:00,
2013-08-09 11:55:00,81.3,76.3,29.77,NNW,337,0.0,-999.0,85,-99.99,,,0.05,Acu-Link.com,2013-08-09 15:55:00,
2013-08-09 12:10:00,77.7,72.5,29.77,North,0,0.0,-999.0,84,-99.99,,,0.20,Acu-Link.com,2013-08-09 16:10:00,
2013-08-09 12:25:00,76.1,72.6,29.78,NNE,22,0.0,-999.0,89,-99.99,,,0.28,Acu-Link.com,2013-08-09 16:25:00,
2013-08-09 12:40:00,75.4,74.5,29.78,WSW,247,1.1,-999.0,97,-99.99,,,0.32,Acu-Link.com,2013-08-09 16:40:00,
2013-08-09 12:55:00,75.6,73.7,29.78,South,180,0.0,-999.0,94,-99.99,,,0.32,Acu-Link.com,2013-08-09 16:55:00,
2013-08-09 13:10:00,75.6,73.7,29.79,NNW,337,0.0,-999.0,94,-99.99,,,0.32,Acu-Link.com,2013-08-09 17:10:00,
2013-08-09 13:26:00,77.2,76.6,29.78,NW,315,0.0,-999.0,98,-99.99,,,0.32,Acu-Link.com,2013-08-09 17:26:00,
2013-08-09 13:41:00,75.6,73.4,29.78,NNW,337,0.0,-999.0,93,-99.99,,,0.32,Acu-Link.com,2013-08-09 17:41:00,
2013-08-09 13:56:00,76.3,74.1,29.78,West,270,0.0,-999.0,93,-99.99,,,0.32,Acu-Link.com,2013-08-09 17:56:00,
2013-08-09 14:11:00,77.2,74.0,29.78,NE,45,1.1,-999.0,90,-99.99,,,0.32,Acu-Link.com,2013-08-09 18:11:00,
2013-08-09 14:26:00,77.0,73.2,29.78,North,0,1.7,-999.0,88,-99.99,,,0.32,Acu-Link.com,2013-08-09 18:26:00,
2013-08-09 14:41:00,75.9,73.1,29.79,ESE,112,0.0,-999.0,91,-99.99,,,0.32,Acu-Link.com,2013-08-09 18:41:00,
2013-08-09 14:56:00,75.2,71.7,29.79,SE,135,1.7,-999.0,89,-99.99,,,0.32,Acu-Link.com,2013-08-09 18:56:00,
2013-08-09 15:11:00,75.6,72.8,29.79,WNW,292,0.0,-999.0,91,-99.99,,,0.32,Acu-Link.com,2013-08-09 19:11:00,
2013-08-09 15:26:00,75.4,72.3,29.79,ENE,67,1.7,-999.0,90,-99.99,,,0.32,Acu-Link.com,2013-08-09 19:26:00,
2013-08-09 15:41:00,76.5,73.0,29.79,NNW,337,0.0,-999.0,89,-99.99,,,0.32,Acu-Link.com,2013-08-09 19:41:00,
2013-08-09 15:57:00,75.2,71.7,29.78,West,270,1.7,-999.0,89,-99.99,,,0.32,Acu-Link.com,2013-08-09 19:57:00,
2013-08-09 16:12:00,75.6,72.1,29.78,West,270,1.1,-999.0,89,-99.99,,,0.32,Acu-Link.com,2013-08-09 20:12:00,
2013-08-09 16:27:00,76.5,72.0,29.79,NW,315,0.0,-999.0,86,-99.99,,,0.32,Acu-Link.com,2013-08-09 20:27:00,
2013-08-09 16:42:00,75.6,71.1,29.78,NNW,337,0.0,-999.0,86,-99.99,,,0.32,Acu-Link.com,2013-08-09 20:42:00,
2013-08-09 16:57:00,75.7,71.9,29.79,WNW,292,0.0,-999.0,88,-99.99,,,0.32,Acu-Link.com,2013-08-09 20:57:00,
2013-08-09 17:12:00,76.5,72.0,29.78,NNE,22,0.0,-999.0,86,-99.99,,,0.32,Acu-Link.com,2013-08-09 21:12:00,
2013-08-09 17:27:00,75.7,70.9,29.79,West,270,0.0,-999.0,85,-99.99,,,0.32,Acu-Link.com,2013-08-09 21:27:00,
2013-08-09 17:42:00,77.4,71.5,29.79,SSE,157,0.0,-999.0,82,-99.99,,,0.32,Acu-Link.com,2013-08-09 21:42:00,
2013-08-09 17:57:00,77.9,71.6,29.79,West,270,0.0,-999.0,81,-99.99,,,0.32,Acu-Link.com,2013-08-09 21:57:00,
2013-08-09 18:13:00,77.9,71.2,29.79,NE,45,0.0,-999.0,80,-99.99,,,0.32,Acu-Link.com,2013-08-09 22:13:00,
2013-08-09 18:28:00,77.4,70.7,29.79,SSW,202,0.0,-999.0,80,-99.99,,,0.32,Acu-Link.com,2013-08-09 22:28:00,
2013-08-09 18:43:00,77.0,70.7,29.79,NNW,337,0.0,-999.0,81,-99.99,,,0.32,Acu-Link.com,2013-08-09 22:43:00,
2013-08-09 18:58:00,76.6,70.3,29.80,NW,315,0.0,-999.0,81,-99.99,,,0.32,Acu-Link.com,2013-08-09 22:58:00,
2013-08-09 19:13:00,76.8,70.5,29.80,WNW,292,0.0,-999.0,81,-99.99,,,0.32,Acu-Link.com,2013-08-09 23:13:00,
2013-08-09 19:28:00,76.6,70.0,29.80,NW,315,0.0,-999.0,80,-99.99,,,0.32,Acu-Link.com,2013-08-09 23:28:00,
2013-08-09 19:43:00,76.1,69.8,29.80,NW,315,0.0,-999.0,81,-99.99,,,0.32,Acu-Link.com,2013-08-09 23:43:00,
2013-08-09 19:58:00,75.4,69.2,29.81,WNW,292,0.0,-999.0,81,-99.99,,,0.32,Acu-Link.com,2013-08-09 23:58:00,
2013-08-09 20:13:00,74.7,68.8,29.81,NW,315,1.1,-999.0,82,-99.99,,,0.32,Acu-Link.com,2013-08-10 00:13:00,
2013-08-09 20:29:00,73.8,68.3,29.82,ESE,112,0.0,-999.0,83,-99.99,,,0.32,Acu-Link.com,2013-08-10 00:29:00,